createdAt,value
2018-01-04T00:01:01.319Z,14.65
2018-01-04T00:03:27.518Z,14.64
2018-01-04T00:05:53.770Z,14.63
2018-01-04T00:08:19.966Z,14.64
2018-01-04T00:10:46.132Z,14.66
2018-01-04T00:13:12.417Z,14.65
2018-01-04T00:15:38.638Z,14.65
2018-01-04T00:18:05.218Z,14.65
2018-01-04T00:20:31.754Z,14.66
2018-01-04T00:22:57.986Z,14.66
2018-01-04T00:25:24.188Z,14.66
2018-01-04T00:27:50.517Z,14.66
2018-01-04T00:30:16.733Z,14.66
2018-01-04T00:32:44.081Z,14.67
2018-01-04T00:35:10.364Z,14.67
2018-01-04T00:37:36.593Z,14.67
2018-01-04T00:40:02.835Z,14.67
2018-01-04T00:42:29.121Z,14.68
2018-01-04T00:44:55.295Z,14.67
2018-01-04T00:47:21.521Z,14.67
2018-01-04T00:49:47.997Z,14.67
2018-01-04T00:52:14.183Z,14.66
2018-01-04T00:54:40.394Z,14.66
2018-01-04T00:57:06.669Z,14.67
2018-01-04T00:59:32.877Z,14.68
2018-01-04T01:01:59.099Z,14.69
2018-01-04T01:04:25.589Z,14.67
2018-01-04T01:06:51.798Z,14.69
2018-01-04T01:09:17.998Z,14.70
2018-01-04T01:11:44.271Z,14.70
2018-01-04T01:14:10.594Z,14.70
2018-01-04T01:16:36.815Z,14.70
2018-01-04T01:19:03.047Z,14.70
2018-01-04T01:21:29.245Z,14.70
2018-01-04T01:23:55.466Z,14.71
2018-01-04T01:26:21.956Z,14.72
2018-01-04T01:28:48.166Z,14.73
2018-01-04T01:31:14.473Z,14.73
2018-01-04T01:33:40.977Z,14.73
2018-01-04T01:36:07.160Z,14.73
2018-01-04T01:38:33.371Z,14.72
2018-01-04T01:40:59.630Z,14.72
2018-01-04T01:43:25.849Z,14.73
2018-01-04T01:45:52.296Z,14.70
2018-01-04T01:48:18.586Z,14.71
2018-01-04T01:50:44.806Z,14.73
2018-01-04T01:53:11.073Z,14.73
2018-01-04T01:55:37.280Z,14.72
2018-01-04T01:58:03.506Z,14.70
2018-01-04T02:00:29.729Z,14.69
2018-01-04T02:02:56.035Z,14.68
2018-01-04T02:05:22.451Z,14.69
2018-01-04T02:07:48.636Z,14.68
2018-01-04T02:10:15.113Z,14.68
2018-01-04T02:12:41.330Z,14.68
2018-01-04T02:15:07.564Z,14.69
2018-01-04T02:17:34.185Z,14.70
2018-01-04T02:23:17.153Z,14.68
2018-01-04T02:25:45.218Z,14.66
2018-01-04T02:28:23.597Z,14.65
2018-01-04T02:31:02.749Z,14.65
2018-01-04T02:33:40.843Z,14.66
2018-01-04T02:36:19.118Z,14.67
2018-01-04T02:38:57.242Z,14.67
2018-01-04T02:41:35.856Z,14.68
2018-01-04T02:44:02.128Z,14.66
2018-01-04T02:46:28.569Z,14.66
2018-01-04T02:48:54.763Z,14.68
2018-01-04T02:51:21.012Z,14.68
2018-01-04T02:53:47.189Z,14.69
2018-01-04T02:56:13.389Z,14.68
2018-01-04T02:58:39.665Z,14.67
2018-01-04T03:01:05.883Z,14.67
2018-01-04T03:03:32.104Z,14.68
2018-01-04T03:05:58.365Z,14.69
2018-01-04T03:08:24.575Z,14.71
2018-01-04T03:10:51.041Z,14.71
2018-01-04T03:13:17.333Z,14.71
2018-01-04T03:15:43.800Z,14.72
2018-01-04T03:18:10.013Z,14.72
2018-01-04T03:20:36.503Z,14.73
2018-01-04T03:23:09.054Z,14.72
2018-01-04T03:25:41.477Z,14.72
2018-01-04T03:28:13.716Z,14.71
2018-01-04T03:30:46.051Z,14.72
2018-01-04T03:33:18.301Z,14.73
2018-01-04T03:35:50.618Z,14.73
2018-01-04T03:38:22.730Z,14.73
2018-01-04T03:40:54.878Z,14.72
2018-01-04T03:43:27.091Z,14.73
2018-01-04T03:45:59.256Z,14.73
2018-01-04T03:48:27.366Z,14.73
2018-01-04T03:50:59.922Z,14.74
2018-01-04T03:53:32.372Z,14.75
2018-01-04T03:59:05.633Z,14.76
2018-01-04T04:01:37.769Z,14.75
2018-01-04T04:04:04.292Z,14.76
2018-01-04T04:06:32.402Z,14.77
2018-01-04T04:08:58.917Z,14.76
2018-01-04T04:11:25.095Z,14.76
2018-01-04T04:13:51.319Z,14.76
2018-01-04T04:16:17.650Z,14.75
2018-01-04T04:18:43.874Z,14.75
2018-01-04T04:21:10.084Z,14.76
2018-01-04T04:23:36.305Z,14.76
2018-01-04T04:26:02.542Z,14.77
2018-01-04T04:28:28.936Z,14.76
2018-01-04T04:30:55.115Z,14.77
2018-01-04T04:33:21.342Z,14.76
2018-01-04T04:35:47.587Z,14.75
2018-01-04T04:38:14.148Z,14.75
2018-01-04T04:40:40.340Z,14.75
2018-01-04T04:43:06.569Z,14.76
2018-01-04T04:45:32.767Z,14.76
2018-01-04T04:47:58.960Z,14.75
2018-01-04T04:50:25.218Z,14.77
2018-01-04T04:52:51.422Z,14.77
2018-01-04T04:55:17.605Z,14.78
2018-01-04T04:57:44.180Z,14.78
2018-01-04T05:00:10.400Z,14.78
2018-01-04T05:02:36.817Z,14.78
2018-01-04T05:05:03.068Z,14.79
2018-01-04T05:07:29.313Z,14.80
2018-01-04T05:09:55.531Z,14.78
2018-01-04T05:12:21.772Z,14.79
2018-01-04T05:14:47.956Z,14.79
2018-01-04T05:17:14.180Z,14.80
2018-01-04T05:19:40.744Z,14.80
2018-01-04T05:22:06.930Z,14.79
2018-01-04T05:24:33.117Z,14.79
2018-01-04T05:26:59.386Z,14.79
2018-01-04T05:29:25.869Z,14.79
2018-01-04T05:31:52.077Z,14.79
2018-01-04T05:34:18.629Z,14.78
2018-01-04T05:36:44.810Z,14.78
2018-01-04T05:39:10.995Z,14.78
2018-01-04T05:41:37.278Z,14.77
2018-01-04T05:44:03.501Z,14.79
2018-01-04T05:46:29.727Z,14.79
2018-01-04T05:48:55.992Z,14.79
2018-01-04T05:51:22.213Z,14.80
2018-01-04T05:53:48.445Z,14.82
2018-01-04T05:56:14.702Z,14.84
2018-01-04T05:58:40.937Z,14.86
2018-01-04T06:01:07.119Z,14.88
2018-01-04T06:03:33.608Z,14.88
2018-01-04T06:05:59.820Z,14.89
2018-01-04T06:08:26.044Z,14.89
2018-01-04T06:10:52.526Z,14.91
2018-01-04T06:13:18.728Z,14.90
2018-01-04T06:15:44.908Z,14.89
2018-01-04T06:18:11.169Z,14.88
2018-01-04T06:20:37.368Z,14.88
2018-01-04T06:23:03.912Z,14.88
2018-01-04T06:25:30.413Z,14.88
2018-01-04T06:27:56.601Z,14.89
2018-01-04T06:30:22.807Z,14.89
2018-01-04T06:32:49.064Z,14.88
2018-01-04T06:35:15.252Z,14.88
2018-01-04T06:37:41.454Z,14.88
2018-01-04T06:40:07.725Z,14.89
2018-01-04T06:42:33.902Z,14.88
2018-01-04T06:45:00.110Z,14.88
2018-01-04T06:47:26.611Z,14.87
2018-01-04T06:49:53.240Z,14.88
2018-01-04T06:52:19.438Z,14.88
2018-01-04T06:54:45.886Z,14.89
2018-01-04T06:57:12.107Z,14.89
2018-01-04T06:59:38.319Z,14.87
2018-01-04T07:02:04.595Z,14.88
2018-01-04T07:04:30.772Z,14.88
2018-01-04T07:06:56.992Z,14.88
2018-01-04T07:09:23.260Z,14.89
2018-01-04T07:11:49.489Z,14.88
2018-01-04T07:14:15.682Z,14.88
2018-01-04T07:16:41.937Z,14.88
2018-01-04T07:19:08.138Z,14.88
2018-01-04T07:21:34.339Z,14.88
2018-01-04T07:24:00.628Z,14.87
2018-01-04T07:26:26.874Z,14.86
2018-01-04T07:28:53.158Z,14.88
2018-01-04T07:31:19.431Z,14.86
2018-01-04T07:33:45.659Z,14.86
2018-01-04T07:36:12.045Z,14.87
2018-01-04T07:38:38.315Z,14.88
2018-01-04T07:41:04.562Z,14.88
2018-01-04T07:43:30.744Z,14.89
2018-01-04T07:45:57.035Z,14.90
2018-01-04T07:48:23.219Z,14.92
2018-01-04T07:50:49.401Z,14.95
2018-01-04T07:53:21.813Z,14.96
2018-01-04T07:55:48.261Z,14.98
2018-01-04T07:58:14.463Z,14.99
2018-01-04T08:00:40.760Z,15.00
2018-01-04T08:03:06.956Z,15.01
2018-01-04T08:05:33.189Z,15.01
2018-01-04T08:07:59.516Z,15.00
2018-01-04T08:10:25.710Z,15.01
2018-01-04T08:12:51.916Z,15.01
2018-01-04T08:15:18.156Z,15.01
2018-01-04T08:17:44.383Z,15.00
2018-01-04T08:20:10.607Z,15.00
2018-01-04T08:22:36.888Z,14.99
2018-01-04T08:25:03.105Z,14.97
2018-01-04T08:27:29.320Z,14.98
2018-01-04T08:29:55.835Z,14.99
2018-01-04T08:32:22.053Z,14.99
2018-01-04T08:34:48.495Z,14.98
2018-01-04T08:37:14.752Z,14.98
2018-01-04T08:39:40.925Z,14.99
2018-01-04T08:42:07.123Z,14.99
2018-01-04T08:44:33.419Z,14.98
2018-01-04T08:46:59.875Z,14.99
2018-01-04T08:49:26.074Z,14.99
2018-01-04T08:51:52.375Z,14.99
2018-01-04T08:54:18.599Z,15.00
2018-01-04T08:56:44.816Z,15.01
2018-01-04T08:59:11.115Z,15.01
2018-01-04T09:01:37.323Z,15.00
2018-01-04T09:04:04.350Z,15.02
2018-01-04T09:06:30.617Z,15.02
2018-01-04T09:08:56.829Z,15.00
2018-01-04T09:11:23.011Z,15.01
2018-01-04T09:13:49.571Z,15.03
2018-01-04T09:16:15.796Z,15.03
2018-01-04T09:18:42.008Z,15.02
2018-01-04T09:21:08.312Z,15.03
2018-01-04T09:23:34.825Z,15.04
2018-01-04T09:26:01.049Z,15.05
2018-01-04T09:28:27.313Z,15.05
2018-01-04T09:30:53.509Z,15.07
2018-01-04T09:33:19.684Z,15.09
2018-01-04T09:35:45.978Z,15.10
2018-01-04T09:38:12.389Z,15.11
2018-01-04T09:40:38.621Z,15.13
2018-01-04T09:43:04.878Z,15.13
2018-01-04T09:45:31.111Z,15.13
2018-01-04T09:47:57.283Z,15.12
2018-01-04T09:50:23.553Z,15.12
2018-01-04T09:52:49.725Z,15.13
2018-01-04T09:55:15.936Z,15.13
2018-01-04T09:57:42.209Z,15.12
2018-01-04T10:00:08.394Z,15.11
2018-01-04T10:02:34.625Z,15.13
2018-01-04T10:05:01.258Z,15.12
2018-01-04T10:07:27.283Z,15.13
2018-01-04T10:09:53.734Z,15.15
2018-01-04T10:12:20.020Z,15.15
2018-01-04T10:14:46.234Z,15.15
2018-01-04T10:17:12.439Z,15.15
2018-01-04T10:19:38.716Z,15.15
2018-01-04T10:22:04.984Z,15.15
2018-01-04T10:24:31.202Z,15.16
2018-01-04T10:26:57.496Z,15.17
2018-01-04T10:29:23.721Z,15.18
2018-01-04T10:31:49.957Z,15.19
2018-01-04T10:34:16.241Z,15.18
2018-01-04T10:36:42.505Z,15.19
2018-01-04T10:39:08.714Z,15.20
2018-01-04T10:41:34.959Z,15.19
2018-01-04T10:44:01.225Z,15.18
2018-01-04T10:46:27.449Z,15.18
2018-01-04T10:48:53.694Z,15.17
2018-01-04T10:51:19.904Z,15.22
2018-01-04T10:53:46.089Z,15.26
2018-01-04T10:56:12.347Z,15.23
2018-01-04T10:58:38.571Z,15.23
2018-01-04T11:01:04.781Z,15.22
2018-01-04T11:03:31.324Z,15.21
2018-01-04T11:05:57.527Z,15.22
2018-01-04T11:08:23.737Z,15.25
2018-01-04T11:10:49.982Z,15.29
2018-01-04T11:13:16.520Z,15.33
2018-01-04T11:15:42.957Z,15.35
2018-01-04T11:18:09.200Z,15.34
2018-01-04T11:20:35.404Z,15.32
2018-01-04T11:23:01.604Z,15.32
2018-01-04T11:25:27.861Z,15.31
2018-01-04T11:27:54.038Z,15.31
2018-01-04T11:30:20.226Z,15.30
2018-01-04T11:32:46.485Z,15.30
2018-01-04T11:35:12.699Z,15.30
2018-01-04T11:37:39.012Z,15.30
2018-01-04T11:40:05.304Z,15.31
2018-01-04T11:42:31.487Z,15.33
2018-01-04T11:44:57.697Z,15.34
2018-01-04T11:47:24.176Z,15.36
2018-01-04T11:49:50.763Z,15.36
2018-01-04T11:52:16.995Z,15.39
2018-01-04T11:54:43.266Z,15.37
2018-01-04T11:57:09.486Z,15.35
2018-01-04T11:59:35.688Z,15.34
2018-01-04T12:02:01.933Z,15.35
2018-01-04T12:04:28.346Z,15.35
2018-01-04T12:06:54.560Z,15.34
2018-01-04T12:09:20.846Z,15.34
2018-01-04T12:11:47.059Z,15.33
2018-01-04T12:14:13.353Z,15.32
2018-01-04T12:16:39.633Z,15.33
2018-01-04T12:19:05.831Z,15.32
2018-01-04T12:21:32.012Z,15.32
2018-01-04T12:23:58.265Z,15.32
2018-01-04T12:26:24.490Z,15.32
2018-01-04T12:28:50.680Z,15.32
2018-01-04T12:31:16.951Z,15.32
2018-01-04T12:33:43.196Z,15.30
2018-01-04T12:36:09.411Z,15.30
2018-01-04T12:38:35.719Z,15.30
2018-01-04T12:41:01.931Z,15.30
2018-01-04T12:43:28.502Z,15.28
2018-01-04T12:45:54.781Z,15.30
2018-01-04T12:48:21.241Z,15.30
2018-01-04T12:50:47.486Z,15.31
2018-01-04T12:53:13.993Z,15.32
2018-01-04T12:55:40.561Z,15.34
2018-01-04T12:58:06.794Z,15.37
2018-01-04T13:00:33.091Z,15.35
2018-01-04T13:02:59.310Z,15.38
2018-01-04T13:05:25.488Z,15.41
2018-01-04T13:07:51.724Z,15.44
2018-01-04T13:10:17.953Z,15.44
2018-01-04T13:12:44.157Z,15.46
2018-01-04T13:15:10.424Z,15.47
2018-01-04T13:17:36.608Z,15.48
2018-01-04T13:20:02.810Z,15.48
2018-01-04T13:22:29.072Z,15.49
2018-01-04T13:24:55.300Z,15.50
2018-01-04T13:27:21.498Z,15.52
2018-01-04T13:29:47.771Z,15.52
2018-01-04T13:32:14.033Z,15.52
2018-01-04T13:34:40.262Z,15.52
2018-01-04T13:37:06.504Z,15.52
2018-01-04T13:39:32.802Z,15.54
2018-01-04T13:41:59.026Z,15.54
2018-01-04T13:44:25.264Z,15.53
2018-01-04T13:46:51.445Z,15.52
2018-01-04T13:49:17.620Z,15.54
2018-01-04T13:51:43.992Z,15.53
2018-01-04T13:54:10.206Z,15.50
2018-01-04T13:56:36.412Z,15.49
2018-01-04T13:59:02.678Z,15.48
2018-01-04T14:01:29.125Z,15.48
2018-01-04T14:03:55.586Z,15.46
2018-01-04T14:06:21.838Z,15.46
2018-01-04T14:08:48.017Z,15.46
2018-01-04T14:11:14.490Z,15.47
2018-01-04T14:13:40.715Z,15.46
2018-01-04T14:16:07.180Z,15.45
2018-01-04T14:18:33.361Z,15.44
2018-01-04T14:20:59.665Z,15.45
2018-01-04T14:23:25.871Z,15.42
2018-01-04T14:25:52.313Z,15.43
2018-01-04T14:28:18.597Z,15.44
2018-01-04T14:30:50.875Z,15.43
2018-01-04T14:33:17.136Z,15.44
2018-01-04T14:35:43.413Z,15.44
2018-01-04T14:38:09.607Z,15.43
2018-01-04T14:40:35.783Z,15.43
2018-01-04T14:43:02.053Z,15.44
2018-01-04T14:45:28.510Z,15.45
2018-01-04T14:47:54.733Z,15.46
2018-01-04T14:50:21.032Z,15.46
2018-01-04T14:52:47.313Z,15.46
2018-01-04T14:55:13.524Z,15.46
2018-01-04T14:57:39.823Z,15.46
2018-01-04T15:00:06.384Z,15.46
2018-01-04T15:02:32.606Z,15.46
2018-01-04T15:04:58.898Z,15.47
2018-01-04T15:07:25.126Z,15.46
2018-01-04T15:09:51.339Z,15.47
2018-01-04T15:12:17.694Z,15.47
2018-01-04T15:14:43.923Z,15.46
2018-01-04T15:17:10.129Z,15.45
2018-01-04T15:19:36.368Z,15.45
2018-01-04T15:22:02.590Z,15.45
2018-01-04T15:24:28.769Z,15.45
2018-01-04T15:26:55.030Z,15.44
2018-01-04T15:29:21.272Z,15.45
2018-01-04T15:31:47.705Z,15.47
2018-01-04T15:34:14.401Z,15.46
2018-01-04T15:36:40.602Z,15.46
2018-01-04T15:39:06.819Z,15.45
2018-01-04T15:41:33.114Z,15.47
2018-01-04T15:43:59.310Z,15.46
2018-01-04T15:46:25.501Z,15.46
2018-01-04T15:48:51.768Z,15.46
2018-01-04T15:51:17.981Z,15.47
2018-01-04T15:53:44.200Z,15.47
2018-01-04T15:56:10.481Z,15.47
2018-01-04T15:58:36.649Z,15.46
2018-01-04T16:01:02.852Z,15.47
2018-01-04T16:03:29.116Z,15.47
2018-01-04T16:05:55.350Z,15.46
2018-01-04T16:08:21.569Z,15.48
2018-01-04T16:10:47.872Z,15.46
2018-01-04T16:13:14.088Z,15.47
2018-01-04T16:15:40.289Z,15.47
2018-01-04T16:18:06.563Z,15.46
2018-01-04T16:20:32.754Z,15.47
2018-01-04T16:22:59.255Z,15.47
2018-01-04T16:25:25.529Z,15.47
2018-01-04T16:27:51.716Z,15.47
2018-01-04T16:30:17.949Z,15.49
2018-01-04T16:32:44.249Z,15.48
2018-01-04T16:35:10.510Z,15.47
2018-01-04T16:37:36.711Z,15.49
2018-01-04T16:40:02.953Z,15.49
2018-01-04T16:42:29.245Z,15.49
2018-01-04T16:44:55.453Z,15.50
2018-01-04T16:47:21.723Z,15.50
2018-01-04T16:49:47.939Z,15.51
2018-01-04T16:52:14.133Z,15.52
2018-01-04T16:54:40.656Z,15.52
2018-01-04T16:57:06.880Z,15.53
2018-01-04T16:59:33.122Z,15.54
2018-01-04T17:01:59.361Z,15.55
2018-01-04T17:04:25.585Z,15.53
2018-01-04T17:06:51.827Z,15.52
2018-01-04T17:09:18.109Z,15.53
2018-01-04T17:11:44.328Z,15.54
2018-01-04T17:14:10.528Z,15.54
2018-01-04T17:16:37.129Z,15.54
2018-01-04T17:19:03.332Z,15.54
2018-01-04T17:21:29.538Z,15.55
2018-01-04T17:23:55.802Z,15.55
2018-01-04T17:26:22.000Z,15.55
2018-01-04T17:28:48.212Z,15.56
2018-01-04T17:31:14.510Z,15.57
2018-01-04T17:33:40.722Z,15.55
2018-01-04T17:36:06.930Z,15.55
2018-01-04T17:38:33.218Z,15.57
2018-01-04T17:40:59.431Z,15.57
2018-01-04T17:43:25.759Z,15.57
2018-01-04T17:45:52.046Z,15.56
2018-01-04T17:48:18.256Z,15.55
2018-01-04T17:50:44.448Z,15.56
2018-01-04T17:53:10.715Z,15.56
2018-01-04T17:55:36.914Z,15.55
2018-01-04T17:58:03.102Z,15.56
2018-01-04T18:00:29.382Z,15.56
2018-01-04T18:02:55.581Z,15.55
2018-01-04T18:05:21.773Z,15.55
2018-01-04T18:07:48.264Z,15.56
2018-01-04T18:10:14.482Z,15.56
2018-01-04T18:12:40.694Z,15.57
2018-01-04T18:15:07.009Z,15.57
2018-01-04T18:17:33.465Z,15.58
2018-01-04T18:19:59.660Z,15.57
2018-01-04T18:22:25.917Z,15.56
2018-01-04T18:24:52.129Z,15.56
2018-01-04T18:27:18.360Z,15.56
2018-01-04T18:29:44.638Z,15.55
2018-01-04T18:32:11.089Z,15.55
2018-01-04T18:34:37.285Z,15.55
2018-01-04T18:37:03.774Z,15.55
2018-01-04T18:39:29.988Z,15.56
2018-01-04T18:42:02.093Z,15.57
2018-01-04T18:44:28.387Z,15.56
2018-01-04T18:46:54.583Z,15.56
2018-01-04T18:49:20.773Z,15.56
2018-01-04T18:51:47.041Z,15.55
2018-01-04T18:54:13.234Z,15.55
2018-01-04T18:56:39.751Z,15.55
2018-01-04T18:59:05.996Z,15.57
2018-01-04T19:01:32.184Z,15.57
2018-01-04T19:03:58.431Z,15.58
2018-01-04T19:06:24.672Z,15.58
2018-01-04T19:08:50.876Z,15.57
2018-01-04T19:11:17.075Z,15.57
2018-01-04T19:13:43.329Z,15.58
2018-01-04T19:16:09.519Z,15.58
2018-01-04T19:18:35.712Z,15.58
2018-01-04T19:21:01.986Z,15.59
2018-01-04T19:23:28.188Z,15.60
2018-01-04T19:25:54.386Z,15.61
2018-01-04T19:28:20.666Z,15.60
2018-01-04T19:30:46.884Z,15.60
2018-01-04T19:33:13.112Z,15.60
2018-01-04T19:35:39.403Z,15.60
2018-01-04T19:38:05.641Z,15.60
2018-01-04T19:40:31.828Z,15.58
2018-01-04T19:42:58.098Z,15.60
2018-01-04T19:45:24.376Z,15.59
2018-01-04T19:47:50.610Z,15.60
2018-01-04T19:50:16.888Z,15.60
2018-01-04T19:52:43.100Z,15.60
2018-01-04T19:55:09.302Z,15.60
2018-01-04T19:57:35.656Z,15.60
2018-01-04T20:00:01.843Z,15.61
2018-01-04T20:02:28.040Z,15.62
2018-01-04T20:04:54.554Z,15.62
2018-01-04T20:07:20.770Z,15.62
2018-01-04T20:09:46.955Z,15.61
2018-01-04T20:12:13.218Z,15.61
2018-01-04T20:14:39.468Z,15.63
2018-01-04T20:17:05.652Z,15.62
2018-01-04T20:19:31.901Z,15.63
2018-01-04T20:21:58.120Z,15.62
2018-01-04T20:24:24.392Z,15.61
2018-01-04T20:26:50.679Z,15.61
2018-01-04T20:29:16.869Z,15.61
2018-01-04T20:31:43.079Z,15.62
2018-01-04T20:34:09.684Z,15.62
2018-01-04T20:36:36.214Z,15.62
2018-01-04T20:39:02.513Z,15.61
2018-01-04T20:41:28.747Z,15.62
2018-01-04T20:43:55.188Z,15.62
2018-01-04T20:46:21.376Z,15.62
2018-01-04T20:48:47.637Z,15.62
2018-01-04T20:51:13.834Z,15.63
2018-01-04T20:53:40.085Z,15.62
2018-01-04T20:56:06.383Z,15.62
2018-01-04T20:58:32.603Z,15.62
2018-01-04T21:00:58.800Z,15.62
2018-01-04T21:03:25.036Z,15.62
2018-01-04T21:05:51.234Z,15.63
2018-01-04T21:08:17.482Z,15.63
2018-01-04T21:10:43.746Z,15.64
2018-01-04T21:13:09.980Z,15.65
2018-01-04T21:15:36.196Z,15.64
2018-01-04T21:18:02.446Z,15.66
2018-01-04T21:20:28.614Z,15.64
2018-01-04T21:22:54.845Z,15.65
2018-01-04T21:25:21.122Z,15.64
2018-01-04T21:27:47.315Z,15.65
2018-01-04T21:30:13.526Z,15.66
2018-01-04T21:32:39.785Z,15.65
2018-01-04T21:35:05.976Z,15.64
2018-01-04T21:37:32.151Z,15.65
2018-01-04T21:39:58.418Z,15.65
2018-01-04T21:42:24.616Z,15.66
2018-01-04T21:44:50.820Z,15.66
2018-01-04T21:47:17.309Z,15.66
2018-01-04T21:49:43.578Z,15.67
2018-01-04T21:52:09.753Z,15.67
2018-01-04T21:54:36.018Z,15.68
2018-01-04T21:57:02.244Z,15.67
2018-01-04T21:59:28.487Z,15.67
2018-01-04T22:01:54.734Z,15.67
2018-01-04T22:04:20.964Z,15.68
2018-01-04T22:06:47.153Z,15.68
2018-01-04T22:09:13.391Z,15.67
2018-01-04T22:11:39.594Z,15.67
2018-01-04T22:14:05.798Z,15.67
2018-01-04T22:16:32.070Z,15.67
2018-01-04T22:18:58.260Z,15.67
2018-01-04T22:21:24.476Z,15.67
2018-01-04T22:23:50.829Z,15.68
2018-01-04T22:26:17.014Z,15.67
2018-01-04T22:28:43.213Z,15.67
2018-01-04T22:31:09.525Z,15.67
2018-01-04T22:33:35.741Z,15.67
2018-01-04T22:36:01.949Z,15.67
2018-01-04T22:38:28.206Z,15.67
2018-01-04T22:40:54.430Z,15.67
2018-01-04T22:43:20.616Z,15.66
2018-01-04T22:45:46.891Z,15.64
2018-01-04T22:48:13.089Z,15.65
2018-01-04T22:50:39.362Z,15.66
2018-01-04T22:53:05.631Z,15.66
2018-01-04T22:55:31.830Z,15.67
2018-01-04T22:57:58.025Z,15.66
2018-01-04T23:00:24.388Z,15.65
2018-01-04T23:02:50.578Z,15.64
2018-01-04T23:05:16.776Z,15.64
2018-01-04T23:07:43.025Z,15.64
2018-01-04T23:10:09.237Z,15.64
2018-01-04T23:12:35.449Z,15.64
2018-01-04T23:15:01.702Z,15.64
2018-01-04T23:17:27.992Z,15.63
2018-01-04T23:19:54.193Z,15.63
2018-01-04T23:22:20.472Z,15.63
2018-01-04T23:24:46.666Z,15.63
2018-01-04T23:27:12.865Z,15.63
2018-01-04T23:29:39.143Z,15.64
2018-01-04T23:32:05.357Z,15.64
2018-01-04T23:34:31.567Z,15.62
2018-01-04T23:36:57.890Z,15.63
2018-01-04T23:39:24.108Z,15.60
2018-01-04T23:41:50.308Z,15.59
2018-01-04T23:44:16.637Z,15.58
2018-01-04T23:46:42.872Z,15.56
2018-01-04T23:49:09.086Z,15.55
2018-01-04T23:51:35.682Z,15.54
2018-01-04T23:54:01.900Z,15.53
2018-01-04T23:56:28.173Z,15.53
2018-01-04T23:58:54.450Z,15.52
